Time;durP1;ratioP1;P1;durP2;ratioP2;P2;SDS_P1;SDS_P2;PMS_P1;PMS_P2;Temp;Humidity;BMP_temperature;BMP_pressure;BME280_temperature;BME280_humidity;BME280_pressure;Samples;Min_cycle;Max_cycle;Signal;HPM_P1;HPM_P2
2022/03/26 00:02:18;;;;;;;195.07;94.80;;;5.20;88.00;;;;;;5058448;28;20187;-91
2022/03/26 00:04:44;;;;;;;178.37;94.13;;;5.10;88.20;;;;;;5058244;28;20227;-90
2022/03/26 00:07:09;;;;;;;191.47;99.67;;;5.00;88.30;;;;;;5058373;28;20176;-91
2022/03/26 00:09:35;;;;;;;195.67;102.83;;;5.00;88.60;;;;;;5058434;28;20179;-91
2022/03/26 00:12:02;;;;;;;202.60;103.83;;;5.20;88.60;;;;;;5058469;28;20201;-90
2022/03/26 00:14:27;;;;;;;208.87;105.37;;;5.30;88.50;;;;;;5058069;28;20581;-91
2022/03/26 00:16:53;;;;;;;206.67;106.20;;;5.30;88.40;;;;;;5058107;28;20190;-90
2022/03/26 00:19:19;;;;;;;205.17;102.97;;;5.30;88.30;;;;;;5076067;28;20195;-90
2022/03/26 00:21:46;;;;;;;198.67;101.53;;;5.30;88.20;;;;;;5076143;28;20672;-90
2022/03/26 00:24:11;;;;;;;197.60;101.37;;;5.30;88.20;;;;;;5058113;28;20200;-91
2022/03/26 00:26:37;;;;;;;203.13;103.73;;;5.10;88.20;;;;;;5056604;28;20351;-90
2022/03/26 00:29:02;;;;;;;200.57;100.80;;;5.20;88.30;;;;;;5057892;28;20605;-88
2022/03/26 00:31:29;;;;;;;204.50;104.77;;;5.20;88.20;;;;;;5075932;28;20175;-88
2022/03/26 00:33:55;;;;;;;199.17;101.80;;;5.20;88.10;;;;;;5058018;28;20167;-90
2022/03/26 00:36:21;;;;;;;205.03;105.87;;;5.20;88.20;;;;;;5058555;28;20175;-91
2022/03/26 00:38:46;;;;;;;195.13;99.17;;;5.20;88.10;;;;;;5076614;28;20255;-90
2022/03/26 00:41:12;;;;;;;190.93;101.30;;;5.10;88.00;;;;;;5058498;28;20180;-91
2022/03/26 00:43:37;;;;;;;203.43;103.27;;;5.10;88.20;;;;;;5058385;28;20183;-88
2022/03/26 00:46:03;;;;;;;197.10;101.53;;;5.20;88.30;;;;;;5076318;28;20241;-91
2022/03/26 00:48:29;;;;;;;200.20;102.67;;;5.10;88.30;;;;;;5062242;28;20293;-93
2022/03/26 00:50:54;;;;;;;205.40;104.47;;;5.00;88.30;;;;;;5060884;28;20181;-93
2022/03/26 00:53:20;;;;;;;200.30;101.43;;;5.10;88.40;;;;;;5067802;28;20717;-93
2022/03/26 00:55:46;;;;;;;196.27;100.43;;;5.00;88.10;;;;;;5072012;28;20278;-93
2022/03/26 00:58:11;;;;;;;180.30;95.10;;;5.00;88.10;;;;;;5072368;28;20534;-92
2022/03/26 01:00:37;;;;;;;190.47;98.47;;;5.00;87.80;;;;;;5072693;28;20184;-91
2022/03/26 01:03:08;;;;;;;186.90;97.70;;;5.00;87.90;;;;;;5071125;28;20199;-93
2022/03/26 01:05:34;;;;;;;189.50;96.67;;;5.00;88.00;;;;;;5070688;28;20203;-93
2022/03/26 01:08:00;;;;;;;178.40;93.40;;;5.10;87.90;;;;;;5073921;28;20226;-93
2022/03/26 01:10:26;;;;;;;183.37;95.23;;;5.00;87.80;;;;;;5069130;28;20180;-93
2022/03/26 01:12:52;;;;;;;182.20;95.10;;;5.00;87.60;;;;;;5069551;28;20168;-93
2022/03/26 01:15:18;;;;;;;182.70;93.83;;;4.90;87.70;;;;;;5070375;28;20215;-92
2022/03/26 01:17:44;;;;;;;180.43;93.97;;;4.90;87.80;;;;;;5070413;28;20176;-92
2022/03/26 01:20:10;;;;;;;184.20;91.30;;;4.80;87.70;;;;;;5063316;28;20187;-92
2022/03/26 01:22:36;;;;;;;183.17;95.27;;;4.90;87.70;;;;;;5064197;28;20171;-93
2022/03/26 01:25:03;;;;;;;183.37;90.90;;;4.90;87.80;;;;;;5064851;28;20252;-92
2022/03/26 01:27:29;;;;;;;174.93;88.80;;;4.90;87.80;;;;;;5067849;28;20172;-92
2022/03/26 01:29:54;;;;;;;167.47;89.67;;;4.90;87.80;;;;;;5066422;28;20182;-92
2022/03/26 01:32:20;;;;;;;164.27;88.80;;;4.90;87.80;;;;;;5065900;28;20191;-92
2022/03/26 01:34:46;;;;;;;154.97;85.33;;;5.00;87.80;;;;;;5065732;28;20203;-92
2022/03/26 01:37:12;;;;;;;156.70;87.23;;;5.00;87.60;;;;;;5064653;28;20262;-93
2022/03/26 01:39:38;;;;;;;154.03;85.57;;;4.90;87.40;;;;;;5066363;28;20188;-92
2022/03/26 01:42:05;;;;;;;145.67;81.47;;;5.00;87.40;;;;;;5065404;28;20179;-92
2022/03/26 01:44:31;;;;;;;168.53;86.70;;;5.00;87.30;;;;;;5065236;28;20247;-92
2022/03/26 01:46:58;;;;;;;152.07;83.73;;;5.00;87.10;;;;;;5065223;28;20176;-92
2022/03/26 01:49:24;;;;;;;149.73;84.60;;;4.90;86.90;;;;;;5067544;28;20171;-92
2022/03/26 01:51:49;;;;;;;148.60;81.47;;;4.90;87.10;;;;;;5070288;28;20186;-91
2022/03/26 01:54:17;;;;;;;162.47;86.43;;;5.00;87.10;;;;;;5066516;28;20210;-92
2022/03/26 01:56:43;;;;;;;157.37;85.43;;;4.90;87.00;;;;;;5068156;28;20171;-92
2022/03/26 01:59:10;;;;;;;160.20;86.73;;;4.90;87.20;;;;;;5070048;28;20176;-92
2022/03/26 02:01:37;;;;;;;153.27;82.60;;;4.90;87.10;;;;;;5068824;28;20173;-94
2022/03/26 02:04:08;;;;;;;153.00;84.03;;;4.90;87.00;;;;;;5068001;28;20182;-92
2022/03/26 02:06:36;;;;;;;170.57;89.83;;;4.90;86.90;;;;;;5068248;28;20167;-92
2022/03/26 02:09:11;;;;;;;167.73;86.10;;;4.90;86.80;;;;;;5069072;28;20175;-93
2022/03/26 02:11:38;;;;;;;154.57;85.53;;;4.90;86.90;;;;;;5069928;28;20247;-92
2022/03/26 02:14:04;;;;;;;150.60;83.23;;;4.90;87.00;;;;;;5071245;28;20215;-92
2022/03/26 02:16:32;;;;;;;138.00;79.30;;;5.00;86.90;;;;;;5070180;28;20180;-93
2022/03/26 02:18:58;;;;;;;138.23;80.07;;;5.00;86.70;;;;;;5067871;28;20183;-92
2022/03/26 02:21:24;;;;;;;140.37;76.40;;;5.00;86.40;;;;;;5068536;28;20173;-93
2022/03/26 02:23:51;;;;;;;131.20;76.23;;;5.00;86.30;;;;;;5068612;28;20203;-92
2022/03/26 02:26:26;;;;;;;133.37;75.87;;;4.90;85.90;;;;;;5068981;28;20254;-93
2022/03/26 02:28:52;;;;;;;147.00;78.47;;;4.90;85.80;;;;;;5069249;28;20163;-93
2022/03/26 02:31:18;;;;;;;154.67;83.37;;;4.80;85.50;;;;;;5066623;28;20190;-93
2022/03/26 02:33:44;;;;;;;155.97;84.83;;;4.80;86.40;;;;;;5068053;28;20176;-93
2022/03/26 02:36:10;;;;;;;152.27;86.00;;;4.80;87.20;;;;;;5071105;28;20274;-92
2022/03/26 02:38:37;;;;;;;153.97;86.63;;;4.70;87.40;;;;;;5071136;28;20198;-92
2022/03/26 02:41:04;;;;;;;161.03;85.20;;;4.70;87.10;;;;;;5072605;28;20201;-92
2022/03/26 02:43:30;;;;;;;162.40;87.03;;;4.70;87.10;;;;;;5073292;28;20255;-93
2022/03/26 02:45:56;;;;;;;158.67;85.07;;;4.70;87.40;;;;;;5074319;28;20211;-93
2022/03/26 02:48:21;;;;;;;166.63;85.30;;;4.70;87.20;;;;;;5072398;28;20195;-93
2022/03/26 02:50:47;;;;;;;167.23;85.33;;;4.70;87.20;;;;;;5070811;28;20180;-93
2022/03/26 02:53:13;;;;;;;160.57;84.23;;;4.70;87.70;;;;;;5074258;28;20244;-93
2022/03/26 02:55:39;;;;;;;156.93;85.40;;;4.70;87.90;;;;;;5074373;28;20214;-92
2022/03/26 02:58:07;;;;;;;171.03;87.67;;;4.70;88.10;;;;;;5075575;28;20180;-93
2022/03/26 03:00:33;;;;;;;177.57;89.43;;;4.70;88.20;;;;;;5075457;28;20175;-93
2022/03/26 03:02:59;;;;;;;173.73;86.33;;;4.70;88.30;;;;;;5074577;28;20192;-91
2022/03/26 03:05:25;;;;;;;164.63;84.57;;;4.60;88.20;;;;;;5072214;28;20224;-93
2022/03/26 03:07:51;;;;;;;174.17;86.03;;;4.60;88.10;;;;;;5070990;28;20171;-93
2022/03/26 03:10:17;;;;;;;171.83;84.90;;;4.50;88.30;;;;;;5067941;28;20171;-94
2022/03/26 03:12:44;;;;;;;165.40;84.80;;;4.50;88.50;;;;;;5070012;28;20175;-92
2022/03/26 03:15:10;;;;;;;170.57;86.13;;;4.40;88.70;;;;;;5075961;28;20199;-93
2022/03/26 03:17:40;;;;;;;174.30;87.67;;;4.40;88.90;;;;;;5072226;28;20245;-92
2022/03/26 03:20:07;;;;;;;163.87;82.83;;;4.40;89.00;;;;;;5070166;28;20183;-93
2022/03/26 03:22:33;;;;;;;155.30;78.87;;;4.60;89.00;;;;;;5069727;28;20197;-92
2022/03/26 03:24:59;;;;;;;161.33;81.13;;;4.40;88.40;;;;;;5071119;28;20267;-93
2022/03/26 03:27:24;;;;;;;155.80;82.37;;;4.30;88.40;;;;;;5073492;28;20205;-93
2022/03/26 03:29:50;;;;;;;154.13;82.73;;;4.30;88.40;;;;;;5075438;28;20179;-92
2022/03/26 03:32:16;;;;;;;161.43;84.23;;;4.30;88.40;;;;;;5077095;28;20180;-93
2022/03/26 03:34:41;;;;;;;161.80;82.03;;;4.30;88.50;;;;;;5075466;28;20234;-92
2022/03/26 03:37:07;;;;;;;166.07;84.67;;;4.30;88.50;;;;;;5073615;28;20200;-93
2022/03/26 03:39:33;;;;;;;170.83;84.67;;;4.30;88.40;;;;;;5072565;28;20186;-93
2022/03/26 03:41:59;;;;;;;161.73;83.80;;;4.30;88.40;;;;;;5077778;28;20243;-92
2022/03/26 03:44:25;;;;;;;173.57;85.40;;;4.40;88.50;;;;;;5075356;28;20306;-92
2022/03/26 03:46:51;;;;;;;172.37;91.93;;;4.40;88.60;;;;;;5076811;28;20206;-93
2022/03/26 03:49:17;;;;;;;176.87;91.07;;;4.50;88.70;;;;;;5071647;28;20176;-92
2022/03/26 03:51:42;;;;;;;175.30;90.17;;;4.50;88.70;;;;;;5075413;28;20188;-92
2022/03/26 03:54:08;;;;;;;183.03;90.50;;;4.50;88.90;;;;;;5073041;28;20267;-92
2022/03/26 03:56:34;;;;;;;185.47;87.90;;;4.40;89.00;;;;;;5078419;28;20163;-92
2022/03/26 03:59:00;;;;;;;190.93;93.83;;;4.30;89.10;;;;;;5077532;28;20163;-92
2022/03/26 04:01:26;;;;;;;187.57;94.03;;;4.20;89.50;;;;;;5078218;28;20185;-92
2022/03/26 04:03:52;;;;;;;191.03;94.87;;;4.20;89.60;;;;;;5081248;28;20171;-92
2022/03/26 04:06:17;;;;;;;205.77;99.00;;;4.30;89.70;;;;;;5081275;28;20277;-92
2022/03/26 04:08:43;;;;;;;199.73;98.30;;;4.30;89.70;;;;;;5080991;28;20185;-93
2022/03/26 04:11:08;;;;;;;198.23;100.40;;;4.30;89.80;;;;;;5079849;28;20179;-93
2022/03/26 04:13:34;;;;;;;204.43;99.77;;;4.30;89.90;;;;;;5078176;28;20178;-93
2022/03/26 04:16:00;;;;;;;198.70;99.97;;;4.40;89.90;;;;;;5078859;28;20180;-92
2022/03/26 04:18:26;;;;;;;199.57;98.80;;;4.40;89.90;;;;;;5078247;28;20193;-92
2022/03/26 04:20:53;;;;;;;213.97;101.13;;;4.50;89.90;;;;;;5075067;28;20251;-92
2022/03/26 04:23:19;;;;;;;217.00;104.57;;;4.50;89.90;;;;;;5076947;28;20163;-92
2022/03/26 04:25:45;;;;;;;214.67;100.20;;;4.50;89.90;;;;;;5078331;28;20211;-92
2022/03/26 04:28:11;;;;;;;196.90;101.50;;;4.50;89.80;;;;;;5074446;28;20197;-93
2022/03/26 04:30:36;;;;;;;207.87;99.40;;;4.60;89.70;;;;;;5074374;28;20175;-93
2022/03/26 04:33:02;;;;;;;199.70;98.13;;;4.50;89.60;;;;;;5077483;28;20176;-92
2022/03/26 04:35:28;;;;;;;208.63;102.23;;;4.30;89.70;;;;;;5081206;28;20229;-92
2022/03/26 04:37:56;;;;;;;217.27;105.23;;;4.30;89.90;;;;;;5079497;28;20175;-93
2022/03/26 04:40:25;;;;;;;220.90;103.83;;;4.30;90.00;;;;;;5079657;28;20179;-94
2022/03/26 04:42:51;;;;;;;216.53;103.57;;;4.30;90.20;;;;;;5079629;28;20164;-93
2022/03/26 04:45:17;;;;;;;223.77;105.17;;;4.20;90.30;;;;;;5071698;28;20679;-94
2022/03/26 04:47:43;;;;;;;224.97;104.73;;;4.20;90.40;;;;;;5072490;28;20184;-93
2022/03/26 04:50:10;;;;;;;229.57;110.13;;;4.20;90.50;;;;;;5072560;28;20214;-93
2022/03/26 04:52:35;;;;;;;218.53;106.93;;;4.30;90.60;;;;;;5076842;28;20259;-93
2022/03/26 04:55:02;;;;;;;223.27;107.70;;;4.30;90.60;;;;;;5077069;28;20218;-93
2022/03/26 04:57:27;;;;;;;227.53;106.93;;;4.30;90.60;;;;;;5063580;28;20678;-92
2022/03/26 04:59:53;;;;;;;245.57;110.27;;;4.30;90.70;;;;;;5063052;28;20178;-92
2022/03/26 05:02:18;;;;;;;246.97;114.23;;;4.30;90.70;;;;;;5061813;28;20206;-92
2022/03/26 05:04:44;;;;;;;236.10;113.60;;;4.30;90.90;;;;;;5062244;28;20226;-92
2022/03/26 05:09:54;;;;;;;246.53;115.93;;;4.40;91.00;;;;;;5086863;28;20173;-93
2022/03/26 05:12:19;;;;;;;254.17;115.33;;;4.40;91.00;;;;;;5067366;28;20202;-93
2022/03/26 05:14:45;;;;;;;254.43;116.13;;;4.40;91.10;;;;;;5065161;28;20209;-93
2022/03/26 05:17:11;;;;;;;252.37;118.47;;;4.40;91.00;;;;;;5072547;28;20185;-93
2022/03/26 05:19:37;;;;;;;250.70;115.17;;;4.40;91.00;;;;;;5072190;28;20175;-93
2022/03/26 05:22:04;;;;;;;234.63;112.47;;;4.40;90.90;;;;;;5071176;28;20197;-93
2022/03/26 05:24:29;;;;;;;243.97;112.43;;;4.40;90.80;;;;;;5064075;28;20240;-92
2022/03/26 05:26:55;;;;;;;254.83;116.67;;;4.40;90.90;;;;;;5062398;28;20261;-92
2022/03/26 05:29:21;;;;;;;259.23;119.87;;;4.30;90.90;;;;;;5061914;28;20171;-92
2022/03/26 05:31:47;;;;;;;266.73;120.37;;;4.50;91.10;;;;;;5062653;28;20175;-92
2022/03/26 05:34:13;;;;;;;252.73;117.40;;;4.50;91.10;;;;;;5066104;28;20187;-93
2022/03/26 05:36:39;;;;;;;251.10;114.17;;;4.50;91.10;;;;;;5066574;28;20235;-92
2022/03/26 05:39:05;;;;;;;250.07;115.13;;;4.50;91.00;;;;;;5064328;28;20232;-93
2022/03/26 05:41:31;;;;;;;248.43;115.43;;;4.50;90.90;;;;;;5063480;28;20220;-93
2022/03/26 05:43:56;;;;;;;256.43;119.63;;;4.60;91.00;;;;;;5072585;28;20190;-93
2022/03/26 05:46:22;;;;;;;253.13;114.47;;;4.60;91.00;;;;;;5068854;28;20214;-93
2022/03/26 05:48:47;;;;;;;251.27;116.10;;;4.60;91.10;;;;;;5067694;28;20211;-92
2022/03/26 05:51:13;;;;;;;265.20;117.07;;;4.60;91.20;;;;;;5065245;28;20175;-93
2022/03/26 05:53:40;;;;;;;278.40;120.03;;;4.60;91.30;;;;;;5066983;28;20171;-92
2022/03/26 05:56:06;;;;;;;259.07;118.90;;;4.80;91.40;;;;;;5064585;28;20726;-92
2022/03/26 05:58:31;;;;;;;257.53;118.47;;;4.80;91.40;;;;;;5064591;28;20179;-92
2022/03/26 06:00:58;;;;;;;268.90;120.10;;;4.90;91.50;;;;;;5064963;28;20179;-93
2022/03/26 06:03:23;;;;;;;260.60;116.67;;;4.90;91.50;;;;;;5071434;28;20191;-93
2022/03/26 06:05:49;;;;;;;256.53;119.07;;;5.00;91.60;;;;;;5065415;28;20215;-90
2022/03/26 06:08:15;;;;;;;268.17;116.90;;;5.10;91.70;;;;;;5075325;28;20177;-90
2022/03/26 06:10:41;;;;;;;255.23;116.27;;;5.10;91.60;;;;;;5057320;28;20175;-89
2022/03/26 06:13:07;;;;;;;253.20;111.80;;;5.30;91.70;;;;;;5063360;28;20616;-92
2022/03/26 06:15:34;;;;;;;268.70;118.43;;;5.30;91.70;;;;;;5061705;28;20260;-91
2022/03/26 06:18:03;;;;;;;252.77;114.27;;;5.40;91.70;;;;;;5078982;28;20172;-90
2022/03/26 06:20:29;;;;;;;270.87;116.77;;;5.50;91.70;;;;;;5056771;28;20184;-90
2022/03/26 06:22:54;;;;;;;251.77;114.57;;;5.50;91.60;;;;;;5056904;28;20178;-90
2022/03/26 06:25:20;;;;;;;251.47;114.57;;;5.60;91.60;;;;;;5057441;28;20580;-89
2022/03/26 06:27:49;;;;;;;247.77;111.60;;;5.60;91.50;;;;;;5057384;28;20182;-89
2022/03/26 06:30:16;;;;;;;241.43;112.77;;;5.70;91.50;;;;;;5056958;28;20222;-91
2022/03/26 06:32:41;;;;;;;238.13;110.07;;;5.80;91.40;;;;;;5057161;28;20171;-90
2022/03/26 06:35:07;;;;;;;235.43;112.57;;;5.90;91.30;;;;;;5056937;28;20290;-90
2022/03/26 06:37:33;;;;;;;246.97;107.73;;;5.90;91.20;;;;;;5057116;28;20184;-90
2022/03/26 06:39:59;;;;;;;244.30;111.77;;;6.00;91.10;;;;;;5057373;28;20638;-90
2022/03/26 06:42:25;;;;;;;208.37;95.73;;;6.10;91.00;;;;;;5057151;28;20284;-89
2022/03/26 06:44:52;;;;;;;231.47;108.07;;;6.20;91.00;;;;;;5077095;28;20262;-90
2022/03/26 06:47:17;;;;;;;213.13;102.23;;;6.30;90.90;;;;;;5058624;28;20540;-89
2022/03/26 06:49:43;;;;;;;209.43;98.73;;;6.50;90.80;;;;;;5074503;28;20231;-89
2022/03/26 06:52:09;;;;;;;198.47;96.17;;;6.60;90.80;;;;;;5056200;28;20519;-92
2022/03/26 06:54:35;;;;;;;186.60;92.30;;;6.70;90.50;;;;;;5061766;28;20208;-91
2022/03/26 06:57:00;;;;;;;185.07;86.67;;;6.80;90.40;;;;;;5061538;28;20174;-90
2022/03/26 06:59:26;;;;;;;194.17;98.87;;;6.90;90.30;;;;;;5059586;28;20188;-92
2022/03/26 07:01:52;;;;;;;176.57;90.27;;;7.00;90.20;;;;;;5059895;28;20182;-92
2022/03/26 07:04:17;;;;;;;168.03;84.23;;;7.10;90.00;;;;;;5060666;28;20218;-90
2022/03/26 07:06:43;;;;;;;165.77;85.27;;;7.20;90.00;;;;;;5058224;28;20597;-91
2022/03/26 07:09:09;;;;;;;162.93;84.87;;;7.20;89.70;;;;;;5056718;28;20197;-92
2022/03/26 07:11:34;;;;;;;158.23;81.97;;;7.30;89.50;;;;;;5056743;28;20170;-92
2022/03/26 07:14:00;;;;;;;150.07;76.70;;;7.40;89.40;;;;;;5055939;28;20185;-91
2022/03/26 07:16:26;;;;;;;144.57;75.03;;;7.60;89.10;;;;;;5056631;28;20183;-92
2022/03/26 07:18:51;;;;;;;135.20;73.70;;;7.70;88.50;;;;;;5055960;28;20279;-91
2022/03/26 07:21:17;;;;;;;139.17;74.60;;;7.90;88.40;;;;;;5055903;28;20519;-92
2022/03/26 07:23:42;;;;;;;134.80;69.53;;;7.90;88.20;;;;;;5056225;28;20313;-92
2022/03/26 07:26:08;;;;;;;120.80;65.80;;;8.00;87.90;;;;;;5056879;28;20207;-91
2022/03/26 07:28:33;;;;;;;118.00;65.20;;;8.00;87.70;;;;;;5055784;28;20175;-92
2022/03/26 07:30:59;;;;;;;114.27;63.80;;;8.10;87.30;;;;;;5056629;28;20171;-92
2022/03/26 07:33:25;;;;;;;105.20;58.30;;;8.20;87.10;;;;;;5056441;28;20167;-91
2022/03/26 07:35:51;;;;;;;104.87;56.97;;;8.30;86.60;;;;;;5056313;28;20621;-90
2022/03/26 07:38:16;;;;;;;110.43;60.97;;;8.40;86.50;;;;;;5058930;28;20262;-90
2022/03/26 07:40:42;;;;;;;103.50;57.13;;;8.50;86.60;;;;;;5059012;28;20179;-91
2022/03/26 07:43:08;;;;;;;97.53;58.33;;;8.60;86.10;;;;;;5059568;28;20618;-90
2022/03/26 07:45:34;;;;;;;103.40;55.90;;;8.80;86.10;;;;;;5077909;28;20198;-90
2022/03/26 07:48:00;;;;;;;84.57;47.23;;;8.90;86.20;;;;;;5059999;28;20201;-90
2022/03/26 07:50:26;;;;;;;89.43;52.20;;;8.90;85.90;;;;;;5062580;28;20228;-92
2022/03/26 07:52:53;;;;;;;85.33;50.43;;;9.00;85.30;;;;;;5063014;28;20175;-91
2022/03/26 07:55:19;;;;;;;93.43;53.27;;;9.00;85.10;;;;;;5063303;28;20222;-93
2022/03/26 07:57:45;;;;;;;94.53;54.43;;;9.20;85.40;;;;;;5064357;28;20186;-92
2022/03/26 08:00:11;;;;;;;84.93;51.17;;;9.20;85.40;;;;;;5063745;28;20242;-93
2022/03/26 08:02:37;;;;;;;82.33;46.00;;;9.30;85.20;;;;;;5061957;28;20642;-92
2022/03/26 08:05:02;;;;;;;78.83;46.10;;;9.40;85.40;;;;;;5061741;28;20210;-92
2022/03/26 08:07:28;;;;;;;79.33;48.00;;;9.40;85.00;;;;;;5060443;28;20262;-92
2022/03/26 08:09:53;;;;;;;71.10;43.53;;;9.50;85.10;;;;;;5061863;28;20175;-92
2022/03/26 08:12:19;;;;;;;76.10;46.07;;;9.70;85.20;;;;;;5060947;28;20254;-93
2022/03/26 08:14:45;;;;;;;83.30;47.70;;;9.90;84.90;;;;;;5061145;28;20238;-93
2022/03/26 08:17:10;;;;;;;67.60;42.13;;;10.00;84.80;;;;;;5061589;28;20657;-92
2022/03/26 08:19:36;;;;;;;67.40;34.47;;;10.20;84.60;;;;;;5060231;28;20556;-92
2022/03/26 08:22:03;;;;;;;54.77;30.83;;;10.30;84.00;;;;;;5061096;28;20198;-92
2022/03/26 08:24:29;;;;;;;51.90;30.60;;;10.40;82.50;;;;;;5061017;28;20203;-93
2022/03/26 08:26:54;;;;;;;50.20;30.50;;;10.50;82.40;;;;;;5061400;28;20185;-92
2022/03/26 08:29:20;;;;;;;50.57;30.83;;;10.70;82.50;;;;;;5064151;28;20171;-92
2022/03/26 08:31:45;;;;;;;41.30;24.57;;;10.70;81.80;;;;;;5064225;28;20236;-92
2022/03/26 08:34:12;;;;;;;46.60;29.27;;;10.80;80.30;;;;;;5060347;28;20195;-92
2022/03/26 08:36:38;;;;;;;41.43;28.00;;;10.90;81.20;;;;;;5060339;28;20240;-92
2022/03/26 08:39:04;;;;;;;39.57;25.57;;;11.30;81.50;;;;;;5060250;28;20229;-92
2022/03/26 08:41:30;;;;;;;37.73;24.77;;;11.30;80.00;;;;;;5059947;28;20258;-91
2022/03/26 08:43:58;;;;;;;35.40;23.23;;;11.40;79.70;;;;;;5062322;28;20171;-92
2022/03/26 08:46:26;;;;;;;43.20;24.83;;;11.20;78.50;;;;;;5072437;28;20211;-92
2022/03/26 08:48:52;;;;;;;38.60;23.93;;;11.20;78.70;;;;;;5064032;28;20175;-92
2022/03/26 08:51:25;;;;;;;37.50;23.93;;;11.40;78.60;;;;;;5061606;28;20713;-92
2022/03/26 08:53:51;;;;;;;41.83;22.50;;;11.30;78.50;;;;;;5062478;28;20164;-92
2022/03/26 08:56:16;;;;;;;34.57;20.70;;;11.50;78.30;;;;;;5057711;28;20175;-92
2022/03/26 08:58:42;;;;;;;39.63;22.33;;;11.50;77.40;;;;;;5058192;28;20178;-92
2022/03/26 09:01:08;;;;;;;32.47;21.17;;;11.60;77.70;;;;;;5057956;28;20555;-92
2022/03/26 09:03:37;;;;;;;32.27;22.77;;;11.60;77.20;;;;;;5057574;28;20571;-92
2022/03/26 09:06:07;;;;;;;31.97;19.83;;;11.60;77.60;;;;;;5057078;28;20207;-92
2022/03/26 09:08:34;;;;;;;30.03;21.23;;;11.80;77.20;;;;;;5057506;28;20617;-91
2022/03/26 09:11:00;;;;;;;33.67;20.93;;;11.80;77.20;;;;;;5057732;28;20176;-92
2022/03/26 09:13:25;;;;;;;33.67;20.63;;;12.00;77.50;;;;;;5057924;28;20179;-91
2022/03/26 09:15:51;;;;;;;31.10;20.30;;;12.00;77.80;;;;;;5057218;28;20199;-91
2022/03/26 09:18:16;;;;;;;26.10;16.13;;;12.10;77.20;;;;;;5057188;28;20172;-92
2022/03/26 09:20:42;;;;;;;24.17;15.77;;;12.10;76.40;;;;;;5057413;28;20171;-91
2022/03/26 09:23:07;;;;;;;26.27;16.70;;;12.20;76.10;;;;;;5065526;28;20183;-92
2022/03/26 09:25:36;;;;;;;23.87;15.57;;;12.00;75.40;;;;;;5066933;28;20290;-91
2022/03/26 09:28:03;;;;;;;24.20;16.00;;;12.10;75.60;;;;;;5063421;28;20172;-92
2022/03/26 09:30:31;;;;;;;25.23;16.67;;;12.10;75.20;;;;;;5064367;28;20179;-91
2022/03/26 09:32:59;;;;;;;26.70;17.27;;;12.10;75.60;;;;;;5069195;28;20183;-92
2022/03/26 09:35:25;;;;;;;26.80;17.23;;;12.00;74.70;;;;;;5063044;28;20206;-93
2022/03/26 09:37:51;;;;;;;30.37;18.03;;;12.00;75.60;;;;;;5059207;28;20620;-92
2022/03/26 09:40:20;;;;;;;26.37;18.23;;;12.00;75.80;;;;;;5068673;28;20248;-92
2022/03/26 09:42:45;;;;;;;29.83;18.33;;;12.10;75.50;;;;;;5090413;28;20213;-93
2022/03/26 09:45:11;;;;;;;27.87;18.33;;;12.00;76.10;;;;;;5078229;28;20219;-91
2022/03/26 09:47:38;;;;;;;27.47;16.60;;;12.00;76.60;;;;;;5068739;28;20278;-93
2022/03/26 09:50:06;;;;;;;31.07;19.57;;;11.90;76.00;;;;;;5083061;28;20237;-91
2022/03/26 09:52:33;;;;;;;33.47;19.53;;;11.80;76.40;;;;;;5062802;28;20171;-92
2022/03/26 09:54:59;;;;;;;25.83;17.47;;;11.90;76.70;;;;;;5060729;28;20257;-91
2022/03/26 09:57:25;;;;;;;29.93;17.47;;;12.10;76.70;;;;;;5060525;28;20183;-92
2022/03/26 09:59:50;;;;;;;32.27;17.83;;;12.00;76.80;;;;;;5061359;28;20552;-91
2022/03/26 10:02:16;;;;;;;26.03;18.50;;;12.20;77.40;;;;;;5060056;28;20175;-91
2022/03/26 10:04:43;;;;;;;28.83;18.40;;;12.10;77.60;;;;;;5060469;28;20207;-93
2022/03/26 10:07:08;;;;;;;33.33;17.77;;;12.20;77.50;;;;;;5058930;28;20645;-92
2022/03/26 10:09:39;;;;;;;32.10;17.33;;;12.30;77.20;;;;;;5058083;28;20180;-92
2022/03/26 10:12:15;;;;;;;25.60;15.53;;;12.20;78.10;;;;;;5074786;28;20163;-91
2022/03/26 10:14:50;;;;;;;27.03;13.77;;;12.30;77.70;;;;;;5057001;28;20241;-91
2022/03/26 10:17:22;;;;;;;22.33;14.27;;;12.30;77.80;;;;;;5056708;28;20167;-92
2022/03/26 10:19:50;;;;;;;26.20;14.67;;;12.30;78.40;;;;;;5056061;28;20250;-92
2022/03/26 10:22:27;;;;;;;23.60;16.60;;;12.20;78.40;;;;;;5056113;28;20175;-91
2022/03/26 10:24:55;;;;;;;24.93;15.37;;;12.10;79.00;;;;;;5055706;28;20207;-91
2022/03/26 10:27:21;;;;;;;21.77;13.93;;;11.90;79.40;;;;;;5055736;28;20175;-91
2022/03/26 10:29:55;;;;;;;16.63;12.67;;;12.00;79.80;;;;;;5056119;28;20182;-92
2022/03/26 10:35:07;;;;;;;16.50;12.33;;;12.30;78.70;;;;;;5073836;28;20604;-91
2022/03/26 10:37:56;;;;;;;15.77;11.73;;;12.20;79.20;;;;;;5055600;28;20175;-91
2022/03/26 10:40:28;;;;;;;21.33;11.20;;;12.20;79.20;;;;;;5055729;28;20629;-92
2022/03/26 10:43:12;;;;;;;21.67;11.03;;;12.40;78.70;;;;;;5055900;28;20195;-91
2022/03/26 10:45:50;;;;;;;27.53;12.27;;;12.30;78.30;;;;;;5055374;28;20203;-91
2022/03/26 10:48:26;;;;;;;19.17;12.00;;;12.00;78.90;;;;;;5055570;28;20198;-91
2022/03/26 10:51:02;;;;;;;20.53;11.30;;;12.20;78.80;;;;;;5055622;28;20160;-91
2022/03/26 10:53:41;;;;;;;13.40;9.60;;;12.30;78.10;;;;;;5055454;28;20541;-91
2022/03/26 10:56:09;;;;;;;18.87;9.97;;;12.30;78.30;;;;;;5055172;28;20241;-91
2022/03/26 10:58:35;;;;;;;23.97;11.00;;;12.00;78.80;;;;;;5073612;28;20641;-91
2022/03/26 11:01:01;;;;;;;19.13;10.13;;;12.10;78.90;;;;;;5055159;28;20171;-91
2022/03/26 11:03:27;;;;;;;19.77;11.57;;;12.20;78.10;;;;;;5055167;28;20182;-91
2022/03/26 11:05:55;;;;;;;17.93;10.57;;;12.00;79.10;;;;;;5055177;28;20203;-91
2022/03/26 11:08:22;;;;;;;17.93;10.77;;;12.30;78.90;;;;;;5055855;28;20173;-91
2022/03/26 11:10:50;;;;;;;23.40;11.90;;;12.30;78.80;;;;;;5054577;28;20570;-92
2022/03/26 11:13:18;;;;;;;23.63;11.73;;;12.20;78.80;;;;;;5055319;28;20172;-92
2022/03/26 11:15:48;;;;;;;20.10;11.37;;;12.50;78.80;;;;;;5055273;28;20677;-91
2022/03/26 11:18:45;;;;;;;19.83;10.97;;;12.70;78.10;;;;;;5055263;28;20220;-91
2022/03/26 11:21:30;;;;;;;20.07;11.03;;;12.60;78.40;;;;;;5047747;28;20180;-91
2022/03/26 11:24:26;;;;;;;17.80;9.53;;;12.40;77.70;;;;;;5072936;28;20176;-91
2022/03/26 11:27:16;;;;;;;14.90;9.57;;;12.20;78.40;;;;;;5055147;28;20171;-91
2022/03/26 11:29:53;;;;;;;10.90;6.97;;;12.30;78.60;;;;;;5055018;28;20163;-91
2022/03/26 11:32:31;;;;;;;12.27;8.93;;;12.20;78.10;;;;;;5055096;28;20167;-91
2022/03/26 11:34:59;;;;;;;14.30;9.73;;;12.20;78.80;;;;;;5055041;28;20290;-91
2022/03/26 11:37:24;;;;;;;16.27;8.83;;;12.00;79.30;;;;;;5055155;28;20203;-91
2022/03/26 11:39:52;;;;;;;18.70;9.13;;;12.20;78.60;;;;;;5054936;28;20531;-92
2022/03/26 11:42:33;;;;;;;10.80;6.17;;;12.50;77.90;;;;;;5055071;28;20186;-91
2022/03/26 11:50:46;;;;;;;15.80;8.47;;;12.00;78.50;;;;;;5074758;28;20155;-88
2022/03/26 11:53:33;;;;;;;17.87;8.97;;;12.40;78.90;;;;;;5059181;28;20255;-91
2022/03/26 11:55:58;;;;;;;17.47;8.70;;;12.20;78.60;;;;;;5054934;28;20215;-91
2022/03/26 11:58:26;;;;;;;19.27;9.20;;;12.10;79.00;;;;;;5054745;28;20225;-91
2022/03/26 12:01:04;;;;;;;22.47;9.13;;;12.20;78.60;;;;;;5054714;28;20728;-91
2022/03/26 12:03:50;;;;;;;19.43;8.37;;;11.90;79.10;;;;;;5054670;28;20167;-91
2022/03/26 12:06:37;;;;;;;15.00;7.53;;;12.20;78.80;;;;;;5054679;28;20315;-92
2022/03/26 12:09:03;;;;;;;16.57;8.23;;;12.20;78.30;;;;;;5054714;28;20159;-91
2022/03/26 12:11:33;;;;;;;21.50;8.77;;;12.00;79.30;;;;;;5054540;28;20176;-91
2022/03/26 12:14:01;;;;;;;13.80;7.33;;;12.00;79.60;;;;;;5054479;28;20271;-91
2022/03/26 12:16:48;;;;;;;15.07;6.73;;;12.10;79.00;;;;;;5054508;28;20214;-92
2022/03/26 12:19:46;;;;;;;18.47;7.47;;;12.00;79.70;;;;;;5054737;28;20748;-92
2022/03/26 12:22:17;;;;;;;16.33;6.97;;;11.90;79.50;;;;;;5057624;28;20258;-87
2022/03/26 12:24:43;;;;;;;14.70;7.07;;;11.90;79.30;;;;;;5076039;28;20249;-89
2022/03/26 12:27:35;;;;;;;15.57;6.40;;;11.90;79.50;;;;;;5078905;28;20179;-90
2022/03/26 12:30:01;;;;;;;13.73;5.87;;;11.80;80.40;;;;;;5057374;28;20225;-91
2022/03/26 12:32:32;;;;;;;15.77;6.27;;;11.60;80.60;;;;;;5061612;28;20248;-90
2022/03/26 12:35:04;;;;;;;13.93;6.10;;;11.90;80.50;;;;;;5060106;28;20281;-89
2022/03/26 12:37:30;;;;;;;17.13;6.53;;;11.70;80.50;;;;;;5076811;28;20641;-90
2022/03/26 12:39:56;;;;;;;12.80;6.27;;;12.00;81.00;;;;;;5058338;28;20271;-90